Terminal Aerodrome Forecast
Issued by NWS

Current Version | Previous Version | Graphics & Text | Print | Product List | Glossary On
Versions: 1 2 3 4 5 6 7 8 9 10 11 12 13 14 15 16 17
000
FTUS41 KPBZ 221500 AAB
TAFMGW
TAF AMD
KMGW 221520Z 2215/2312 25007KT P6SM SCT007 OVC015
      TEMPO 2215/2216 2SM -SHRA BKN007
     FM222100 29010G18KT P6SM BKN025
     FM230100 32006KT P6SM BKN025=

USA.gov is the U.S. government's official web portal to all federal, state and local government web resources and services.